Joplin Regional Airport
KJLN : now visible

Airfield :











YOU CAN JOIN US ON...

 
LOGIN :

Register | Disclaimer

   EN    FR    IT 

 









Legend :    VFR   Marginal VFR   IFR   Intensive IFR   Very Intensive IFR
Visi :
Ceiling :
>= 8 km
>= 3000ft
5 to 8 km
1000 to 3000 ft
1500m to 5 km
500 to 1000 ft
800 to 1500m
200 to 500 ft
< 800m
< 200 ft
Symbols :   Thunderstorms  Fog  Heavy snow  Heavy precipitations  Wind > 20 kt






- Airport Elevation : 981 ft
- IATA code : JLN


KJLN - Joplin Regional

CURRENT METAR :
  • 040453Z AUTO 15008KT 10SM CLR 26/23 A3002 RMK AO2 SLP151 T02560233 $

EXPIRED METARs :
  • 040353Z AUTO 14006KT 6SM BR CLR 25/24 A3002 RMK AO2 SLP154 T02500239 $
  • 040253Z AUTO 10005KT 5SM BR CLR 24/23 A3002 RMK AO2 SLP154 T02440233 51010 $
  • 040234Z AUTO 10005KT 2 1/2SM BR CLR 24/23 A3002 RMK AO2 T02440233 $

TAF KJLN
Valid from the 04 at 03:00 until the 05 at 00:00 UTC


040242Z 0403/0424 16006KT P6SM SCT060 BKN100
TEMPO 0403/0404 3SM BR
FM041500 20011KT P6SM FEW080
KZKC FIR / North America



MET'MAP, your aeronautical weather chart ! - Copyright ORBIFLY December 2007 - Disclaimer

ORBIFLY MET'MAP TEAM :

Programming & Development : Alexandra Zaïnal
Original concept : Baudouin d'Aumeries
Technical & hardware support : Manuel Goepfert
Assistance : Marc-Olivier Méhu




SOURCES & CREDITS :

   NOAA       Earth
Advisory